Flight Track Log - Related Links

Times and Time Zones

All times are in EDT time to prevent confusion due to time zone crossing. See the N175HQ flight status page for this flight to view local times or setup timezone preferences in your user account.

Time Position Orientation Groundspeed Altitude Reporting Facility
EDT Latitude Longitude Course Direction KTS MPH feet Rate Location/Type
Mon 02:32:14 PM 35.3811 -97.6097 250° West 135 155 1,900  Level Fort Worth Center
Mon 02:33:33 PM 35.3622 -97.6731 250° West 224 258 4,700 2,245 Climbing Fort Worth Center
Mon 02:34:33 PM 35.3975 -97.7472 300° West 284 327 7,100 2,400 Climbing Fort Worth Center
Mon 02:35:08 PM 35.4181 -97.7828 305° West 283 326 8,500 3,164 Climbing Fort Worth Center
Mon 02:35:28 PM 35.4306 -97.8264 289° West 289 333 10,000 2,900 Climbing Fort Worth Center
Mon 02:36:08 PM 35.4386 -97.8747 282° West 283 326 11,400 2,580 Climbing Fort Worth Center
Mon 02:37:08 PM 35.4508 -97.9742 279° West 297 342 14,300 2,900 Climbing Fort Worth Center
Mon 02:38:08 PM 35.4628 -98.0786 278° West 302 348 17,200 2,650 Climbing Fort Worth Center
Mon 02:39:08 PM 35.4767 -98.1858 279° West 308 354 19,600 2,350 Climbing Fort Worth Center
Mon 02:40:08 PM 35.4969 -98.2983 283° West 326 375 21,900 2,200 Climbing Fort Worth Center
Mon 02:41:08 PM 35.5211 -98.4108 285° West 337 388 24,000 2,100 Climbing Fort Worth Center
Mon 02:42:08 PM 35.5828 -98.5264 303° West 342 394 26,100 1,743 Climbing Fort Worth Center
Mon 02:44:07 PM 35.7147 -98.7242 309° West 388 447 29,200 1,410 Climbing Kansas City Center
Mon 02:45:11 PM 35.7817 -98.8256 309° West 397 457 30,400 1,344 Climbing Kansas City Center
Mon 02:46:12 PM 35.8517 -98.9350 308° West 404 465 32,000 1,525 Climbing Kansas City Center
Mon 02:47:13 PM 35.9208 -99.0411 309° West 401 461 33,500 1,584 Climbing Kansas City Center
Mon 02:48:17 PM 36.0019 -99.1672 309° West 395 455 35,300 1,200 Climbing Kansas City Center
Mon 02:49:18 PM 36.0694 -99.2689 309° West 389 448 36,000 347 Climbing Kansas City Center
Mon 02:50:18 PM 36.1336 -99.3719 308° West 389 448 36,000  Level Kansas City Center
Mon 02:51:22 PM 36.2017 -99.4786 308° West 392 451 36,000  Level Kansas City Center
Mon 02:52:23 PM 36.2694 -99.5842 309° West 392 451 36,000  Level Kansas City Center
Mon 02:53:23 PM 36.3381 -99.6922 308° West 394 453 36,000  Level Kansas City Center
Mon 02:54:27 PM 36.4203 -99.8217 308° West 397 457 36,000  Level Kansas City Center
Mon 02:55:28 PM 36.4883 -99.9289 308° West 395 455 36,000  Level Kansas City Center
Mon 02:56:29 PM 36.5561 -100.0367 308° West 395 455 36,000  Level Kansas City Center
Mon 02:57:32 PM 36.6239 -100.1453 308° West 396 456 36,000  Level Kansas City Center
Mon 02:58:34 PM 36.6933 -100.2556 308° West 400 460 36,000  Level Kansas City Center
Mon 02:59:34 PM 36.7717 -100.3800 308° West 401 461 36,000  Level Kansas City Center
Mon 03:00:36 PM 36.8358 -100.4850 307° West 398 458 36,000  Level Kansas City Center
Mon 03:01:40 PM 36.9003 -100.5894 308° West 397 457 36,000  Level Kansas City Center
Mon 03:02:41 PM 36.9758 -100.7122 308° West 397 457 36,000  Level Kansas City Center
Mon 03:03:42 PM 37.0408 -100.8181 308° West 399 459 36,000  Level Kansas City Center
Mon 03:04:45 PM 37.1161 -100.9417 307° West 399 459 36,000  Level Kansas City Center
Mon 03:05:45 PM 37.1819 -101.0489 308° West 402 463 36,000  Level Kansas City Center
Mon 03:06:47 PM 37.2469 -101.1572 307° West 403 464 36,000  Level Kansas City Center
Mon 03:08:52 PM 37.3878 -101.3900 307° West 400 460 36,000  Level Kansas City Center
Mon 03:09:53 PM 37.4636 -101.5156 307° West 400 460 36,000  Level Kansas City Center
Mon 03:10:55 PM 37.5278 -101.6231 307° West 400 460 36,000  Level Kansas City Center
Mon 03:11:57 PM 37.6008 -101.7469 307° West 395 455 36,000  Level Kansas City Center
Mon 03:13:00 PM 37.6647 -101.8528 307° West 394 453 36,000  Level Kansas City Center
Mon 03:14:00 PM 37.7264 -101.9594 306° West 393 452 36,000  Level Kansas City Center
Mon 03:15:02 PM 37.8000 -102.0806 308° West 390 449 36,000  Level Kansas City Center
Mon 03:16:06 PM 37.8642 -102.1822 309° West 387 445 36,000  Level Kansas City Center
Mon 03:17:06 PM 37.9486 -102.2925 314° West 388 447 36,000  Level Kansas City Center
Mon 03:18:07 PM 38.0197 -102.3894 313° West 391 450 36,000  Level Kansas City Center
Mon 03:19:20 PM 38.1142 -102.5183 313° West 390 449 36,000 -267 Level Denver Center
Mon 03:20:22 PM 38.1853 -102.6164 313° West 393 452 35,400 -968 Descending Denver Center
Mon 03:21:24 PM 38.2706 -102.7339 313° West 403 464 34,000 -1,306 Descending Denver Center
Mon 03:22:26 PM 38.3481 -102.8372 314° West 417 480 32,700 -1,355 Descending Denver Center
Mon 03:23:28 PM 38.4350 -102.9603 312° West 420 483 31,200 -1,306 Descending Denver Center
Mon 03:24:30 PM 38.5114 -103.0664 313° West 423 487 30,000 -581 Descending Denver Center
Mon 03:25:32 PM 38.5772 -103.1564 313° West 418 481 30,000  Level Denver Center
Mon 03:26:34 PM 38.6675 -103.2847 312° West 414 476 30,000  Level Denver Center
Mon 03:27:36 PM 38.7611 -103.4136 313° West 419 482 30,000  Level Denver Center
Mon 03:28:38 PM 38.8375 -103.5217 312° West 418 481 30,000  Level Denver Center
Mon 03:29:40 PM 38.9181 -103.6369 312° West 418 481 30,000 -290 Level Denver Center
Mon 03:30:42 PM 38.9972 -103.7492 312° West 421 484 29,400 -1,355 Descending Denver Center
Mon 03:31:44 PM 39.0758 -103.8597 313° West 415 478 27,200 -2,081 Descending Denver Center
Mon 03:32:46 PM 39.1506 -103.9675 312° West 401 461 25,100 -2,000 Descending Denver Center
Mon 03:33:47 PM 39.2222 -104.0703 312° West 387 445 23,100 -2,293 Descending Denver Center
Mon 03:34:49 PM 39.3156 -104.1714 320° Northwest 395 455 20,400 -2,323 Descending Denver Center
Mon 03:35:51 PM 39.4064 -104.2472 327° Northwest 390 449 18,300 -1,645 Descending Denver Center
Mon 03:36:53 PM 39.4944 -104.3186 328° Northwest 376 433 17,000 -629 Descending Denver Center
Mon 03:37:55 PM 39.5892 -104.3944 328° Northwest 372 428 17,000 -823 Level Denver Center
Mon 03:38:57 PM 39.6753 -104.4650 328° Northwest 368 423 15,300 -1,707 Descending Denver Center
Mon 03:39:58 PM 39.7633 -104.5211 334° Northwest 342 394 13,500 -1,756 Descending Denver Center
Mon 03:41:00 PM 39.8606 -104.5233 359° North 318 366 11,700 -1,261 Descending Denver Center
Mon 03:41:57 PM 39.9333 -104.5167 North 281 323 11,000 -872 Descending Denver TRACON
Mon 03:42:57 PM 40.0167 -104.5167 360° North 274 315 10,000 -1,100 Descending Denver TRACON
Mon 03:43:57 PM 40.0833 -104.5333 349° North 279 321 8,800 -923 Descending Denver TRACON
Mon 03:45:07 PM 40.0892 -104.6272 275° West 230 265 8,000 -318 Descending Denver Center
Mon 03:46:09 PM 40.0492 -104.6692 219° Southwest 188 216 8,100 -290 Climbing Denver Center
Mon 03:47:11 PM 40.0056 -104.6858 196° South 165 190 7,400 -774 Descending Denver Center
Mon 03:48:13 PM 39.9567 -104.6861 180° South 160 184 6,500 -774 Descending Denver Center
Mon 03:49:15 PM 39.9200 -104.6867 181° South 135 155 5,800 -537 Descending Denver Center
Mon 03:50:16 PM 39.8828 -104.6872 181° South 133 153 5,400 -393 Descending Denver Center
Mon 03:52:00 PM 39.8617 -104.6732 199° South  Level Estimated
Mon 03:59:00 PM 39.8617 -104.6732 199° South  Level Estimated

Login

Don't have an account? Register now (free) for customized features, flight alerts, and more!